createdAt,value
2023-03-11T00:00:00.431Z,1.52
2023-03-11T00:02:32.216Z,1.70
2023-03-11T00:05:04.415Z,1.70
2023-03-11T00:07:37.719Z,1.40
2023-03-11T00:10:33.576Z,1.75
2023-03-11T00:13:07.317Z,2.70
2023-03-11T00:15:39.869Z,1.60
2023-03-11T00:18:11.748Z,1.75
2023-03-11T00:20:45.679Z,1.20
2023-03-11T00:23:17.405Z,0.70
2023-03-11T00:25:49.119Z,0.80
2023-03-11T00:28:25.266Z,0.68
2023-03-11T00:30:57.042Z,0.77
2023-03-11T00:33:28.783Z,0.77
2023-03-11T00:36:00.503Z,1.10
2023-03-11T00:38:32.482Z,1.10
2023-03-11T00:41:04.460Z,1.20
2023-03-11T00:43:36.380Z,1.10
2023-03-11T00:46:10.195Z,1.20
2023-03-11T00:48:41.936Z,1.23
2023-03-11T00:51:15.336Z,1.20
2023-03-11T00:53:47.172Z,1.30
2023-03-11T00:56:19.072Z,1.52
2023-03-11T00:58:50.828Z,1.20
2023-03-11T01:01:23.512Z,1.08
2023-03-11T01:03:55.550Z,1.27
2023-03-11T01:06:32.741Z,1.20
2023-03-11T01:09:11.090Z,1.48
2023-03-11T01:11:42.863Z,1.00
2023-03-11T01:14:14.793Z,1.08
2023-03-11T01:16:46.659Z,1.17
2023-03-11T01:19:20.924Z,1.10
2023-03-11T01:21:52.848Z,0.98
2023-03-11T01:24:24.630Z,1.15
2023-03-11T01:26:56.429Z,1.00
2023-03-11T01:29:29.670Z,1.25
2023-03-11T01:32:01.344Z,1.23
2023-03-11T01:34:35.773Z,1.00
2023-03-11T01:37:07.503Z,1.00
2023-03-11T01:39:39.218Z,0.95
2023-03-11T01:42:15.026Z,1.15
2023-03-11T01:44:47.344Z,1.00
2023-03-11T01:47:39.778Z,1.00
2023-03-11T01:50:13.981Z,1.00
2023-03-11T01:52:47.792Z,1.10
2023-03-11T01:55:20.432Z,1.20
2023-03-11T01:57:54.007Z,1.20
2023-03-11T02:00:26.772Z,1.13
2023-03-11T02:03:02.317Z,0.98
2023-03-11T02:05:35.347Z,1.20
2023-03-11T02:08:08.035Z,1.17
2023-03-11T02:10:41.917Z,1.25
2023-03-11T02:13:13.729Z,1.40
2023-03-11T02:15:46.429Z,1.55
2023-03-11T02:18:20.404Z,1.40
2023-03-11T02:21:18.781Z,1.30
2023-03-11T02:24:13.418Z,1.33
2023-03-11T02:26:55.842Z,1.30
2023-03-11T02:29:29.586Z,1.42
2023-03-11T02:32:06.580Z,1.35
2023-03-11T02:34:39.766Z,1.45
2023-03-11T02:37:14.860Z,1.40
2023-03-11T02:39:54.795Z,1.50
2023-03-11T02:42:32.544Z,1.65
2023-03-11T02:45:30.751Z,1.40
2023-03-11T02:48:03.278Z,1.77
2023-03-11T02:50:37.334Z,1.70
2023-03-11T02:53:10.168Z,1.45
2023-03-11T02:55:42.096Z,1.52
2023-03-11T02:58:13.957Z,2.13
2023-03-11T03:00:45.838Z,1.60
2023-03-11T03:03:17.794Z,1.63
2023-03-11T03:05:50.810Z,1.73
2023-03-11T03:08:22.709Z,1.67
2023-03-11T03:10:54.468Z,1.70
2023-03-11T03:13:27.481Z,1.73
2023-03-11T03:16:00.817Z,1.80
2023-03-11T03:18:32.708Z,1.73
2023-03-11T03:21:05.521Z,1.92
2023-03-11T03:23:38.210Z,1.58
2023-03-11T03:26:13.772Z,1.40
2023-03-11T03:28:47.238Z,1.70
2023-03-11T03:31:19.493Z,1.40
2023-03-11T03:33:51.336Z,1.50
2023-03-11T03:36:23.859Z,1.40
2023-03-11T03:39:01.555Z,1.23
2023-03-11T03:41:37.696Z,1.17
2023-03-11T03:44:10.328Z,1.35
2023-03-11T03:46:42.449Z,1.33
2023-03-11T03:49:14.909Z,1.30
2023-03-11T03:51:46.985Z,1.10
2023-03-11T03:54:29.000Z,1.20
2023-03-11T03:57:01.111Z,1.40
2023-03-11T03:59:35.127Z,1.30
2023-03-11T04:02:09.615Z,1.35
2023-03-11T04:04:41.642Z,1.13
2023-03-11T04:07:15.624Z,1.10
2023-03-11T04:09:47.533Z,1.20
2023-03-11T04:12:20.377Z,0.90
2023-03-11T04:14:52.263Z,1.17
2023-03-11T04:17:24.215Z,1.60
2023-03-11T04:19:57.449Z,0.93
2023-03-11T04:22:29.459Z,1.15
2023-03-11T04:25:01.317Z,0.90
2023-03-11T04:27:34.890Z,1.23
2023-03-11T04:30:09.640Z,1.13
2023-03-11T04:32:41.827Z,1.08
2023-03-11T04:35:14.238Z,1.08
2023-03-11T04:37:46.049Z,1.27
2023-03-11T04:40:18.587Z,1.17
2023-03-11T04:42:53.046Z,1.20
2023-03-11T04:45:24.995Z,1.33
2023-03-11T04:48:01.181Z,1.50
2023-03-11T04:50:35.329Z,1.48
2023-03-11T04:53:07.215Z,1.17
2023-03-11T04:55:40.047Z,1.00
2023-03-11T04:58:11.814Z,1.50
2023-03-11T05:00:44.539Z,1.52
2023-03-11T05:03:19.083Z,1.30
2023-03-11T05:05:53.192Z,1.48
2023-03-11T05:10:58.437Z,1.40
2023-03-11T05:13:30.238Z,1.20
2023-03-11T05:16:02.509Z,1.38
2023-03-11T05:18:34.365Z,1.20
2023-03-11T05:21:06.548Z,1.27
2023-03-11T05:23:40.800Z,1.00
2023-03-11T05:26:12.623Z,1.58
2023-03-11T05:28:47.084Z,1.40
2023-03-11T05:31:18.970Z,1.23
2023-03-11T05:33:50.739Z,1.52
2023-03-11T05:36:22.562Z,1.20
2023-03-11T05:38:54.481Z,1.30
2023-03-11T05:41:29.307Z,0.88
2023-03-11T05:46:33.797Z,1.35
2023-03-11T05:49:06.718Z,1.30
2023-03-11T05:51:38.541Z,1.50
2023-03-11T05:54:15.057Z,1.27
2023-03-11T05:56:50.220Z,1.20
2023-03-11T05:59:24.007Z,1.10
2023-03-11T06:02:02.081Z,1.60
2023-03-11T06:04:34.129Z,1.15
2023-03-11T06:07:12.207Z,1.20
2023-03-11T06:09:44.659Z,1.40
2023-03-11T06:12:21.102Z,1.13
2023-03-11T06:15:09.351Z,1.10
2023-03-11T06:17:42.273Z,1.25
2023-03-11T06:20:14.383Z,1.73
2023-03-11T06:22:51.272Z,1.02
2023-03-11T06:25:26.003Z,1.30
2023-03-11T06:27:59.249Z,1.10
2023-03-11T06:30:32.512Z,1.13
2023-03-11T06:33:16.492Z,1.08
2023-03-11T06:35:59.658Z,1.20
2023-03-11T06:38:32.320Z,1.23
2023-03-11T06:41:05.999Z,1.10
2023-03-11T06:43:39.805Z,1.45
2023-03-11T06:46:16.150Z,1.20
2023-03-11T06:48:52.441Z,1.17
2023-03-11T06:51:25.835Z,1.10
2023-03-11T06:53:57.635Z,1.00
2023-03-11T06:56:30.621Z,1.80
2023-03-11T06:59:07.685Z,1.00
2023-03-11T07:01:40.130Z,1.40
2023-03-11T07:04:13.844Z,1.10
2023-03-11T07:06:46.916Z,0.90
2023-03-11T07:09:25.357Z,1.33
2023-03-11T07:11:57.429Z,1.50
2023-03-11T07:14:34.993Z,1.13
2023-03-11T07:17:06.737Z,1.30
2023-03-11T07:19:43.755Z,1.50
2023-03-11T07:22:15.589Z,1.60
2023-03-11T07:24:50.526Z,1.33
2023-03-11T07:29:54.962Z,1.30
2023-03-11T07:32:26.674Z,1.52
2023-03-11T07:34:58.392Z,1.70
2023-03-11T07:37:30.105Z,1.63
2023-03-11T07:40:01.987Z,1.70
2023-03-11T07:42:34.890Z,2.17
2023-03-11T07:45:08.072Z,1.65
2023-03-11T07:47:39.859Z,1.88
2023-03-11T07:50:12.135Z,2.13
2023-03-11T07:52:44.199Z,1.95
2023-03-11T07:55:16.095Z,1.65
2023-03-11T07:57:49.269Z,1.75
2023-03-11T08:00:21.436Z,1.65
2023-03-11T08:02:53.593Z,1.70
2023-03-11T08:05:25.339Z,1.70
2023-03-11T08:07:57.020Z,1.90
2023-03-11T08:10:28.835Z,2.17
2023-03-11T08:13:00.632Z,1.50
2023-03-11T08:15:32.655Z,1.55
2023-03-11T08:18:05.275Z,1.77
2023-03-11T08:20:39.989Z,1.85
2023-03-11T08:23:11.893Z,1.80
2023-03-11T08:25:43.663Z,1.75
2023-03-11T08:28:16.174Z,1.80
2023-03-11T08:30:47.958Z,1.80
2023-03-11T08:33:19.937Z,1.80
2023-03-11T08:35:51.796Z,1.48
2023-03-11T08:38:23.549Z,1.90
2023-03-11T08:40:55.284Z,1.67
2023-03-11T08:43:27.172Z,1.30
2023-03-11T08:46:04.000Z,1.67
2023-03-11T08:48:37.872Z,1.95
2023-03-11T08:51:13.526Z,1.70
2023-03-11T08:53:45.533Z,2.00
2023-03-11T08:56:17.476Z,2.05
2023-03-11T08:58:50.839Z,1.63
2023-03-11T09:01:23.749Z,2.03
2023-03-11T09:03:55.703Z,2.10
2023-03-11T09:06:30.414Z,1.67
2023-03-11T09:11:37.452Z,1.90
2023-03-11T09:14:09.225Z,1.90
2023-03-11T09:16:41.150Z,1.90
2023-03-11T09:19:12.889Z,1.92
2023-03-11T09:21:44.668Z,1.73
2023-03-11T09:24:16.368Z,2.25
2023-03-11T09:26:48.132Z,1.33
2023-03-11T09:29:19.881Z,1.55
2023-03-11T09:31:51.816Z,1.45
2023-03-11T09:34:23.653Z,1.90
2023-03-11T09:36:55.411Z,1.92
2023-03-11T09:39:27.251Z,1.65
2023-03-11T09:42:15.216Z,2.10
2023-03-11T09:44:59.589Z,2.03
2023-03-11T09:47:39.221Z,2.20
2023-03-11T09:50:20.484Z,2.45
2023-03-11T09:53:18.880Z,2.15
2023-03-11T09:55:56.514Z,2.25
2023-03-11T09:58:51.566Z,2.30
2023-03-11T10:01:37.521Z,2.00
2023-03-11T10:04:18.257Z,2.25
2023-03-11T10:06:50.294Z,2.00
2023-03-11T10:09:39.926Z,2.25
2023-03-11T10:12:20.249Z,2.50
2023-03-11T10:14:54.722Z,2.40
2023-03-11T10:17:58.807Z,1.85
2023-03-11T10:21:00.304Z,2.45
2023-03-11T10:23:57.956Z,2.63
2023-03-11T10:26:39.800Z,2.30
2023-03-11T10:29:25.813Z,2.67
2023-03-11T10:32:13.320Z,2.13
2023-03-11T10:34:53.632Z,2.30
2023-03-11T10:37:48.040Z,2.13
2023-03-11T10:40:28.200Z,2.72
2023-03-11T10:43:19.890Z,1.80
2023-03-11T10:45:53.355Z,2.47
2023-03-11T10:48:27.268Z,2.58
2023-03-11T10:51:11.860Z,2.57
2023-03-11T10:53:53.072Z,2.08
2023-03-11T10:56:38.662Z,2.42
2023-03-11T10:59:42.752Z,2.47
2023-03-11T11:02:31.701Z,3.20
2023-03-11T11:05:06.318Z,2.30
2023-03-11T11:07:42.152Z,2.55
2023-03-11T11:10:22.109Z,2.50
2023-03-11T11:12:59.475Z,2.20
2023-03-11T11:15:42.204Z,2.85
2023-03-11T11:18:22.329Z,2.40
2023-03-11T11:20:53.940Z,2.10
2023-03-11T11:23:30.950Z,2.38
2023-03-11T11:26:06.274Z,2.28
2023-03-11T11:28:38.027Z,2.30
2023-03-11T11:31:26.489Z,2.20
2023-03-11T11:33:58.297Z,2.80
2023-03-11T11:36:38.877Z,2.42
2023-03-11T11:39:17.397Z,2.15
2023-03-11T11:41:52.947Z,2.20
2023-03-11T11:44:33.832Z,2.92
2023-03-11T11:47:18.992Z,2.85
2023-03-11T11:49:58.564Z,2.58
2023-03-11T11:52:45.243Z,2.72
2023-03-11T11:55:29.630Z,2.92
2023-03-11T11:58:01.396Z,2.73
2023-03-11T12:01:03.441Z,2.80
2023-03-11T12:04:12.232Z,2.67
2023-03-11T12:07:14.394Z,3.28
2023-03-11T12:09:58.084Z,3.40
2023-03-11T12:12:46.256Z,3.20
2023-03-11T12:15:27.020Z,3.65
2023-03-11T12:18:07.073Z,3.15
2023-03-11T12:20:45.492Z,3.40
2023-03-11T12:23:20.205Z,3.05
2023-03-11T12:26:07.730Z,3.00
2023-03-11T12:29:17.985Z,3.25
2023-03-11T12:31:50.425Z,2.75
2023-03-11T12:34:24.913Z,3.50
2023-03-11T12:37:03.418Z,2.92
2023-03-11T12:39:35.636Z,3.45
2023-03-11T12:42:13.067Z,3.65
2023-03-11T12:44:45.979Z,3.72
2023-03-11T12:47:20.855Z,3.92
2023-03-11T12:52:30.060Z,4.18
2023-03-11T12:55:01.682Z,3.45
2023-03-11T12:57:53.019Z,3.45
2023-03-11T13:00:34.913Z,3.22
2023-03-11T13:03:15.853Z,3.08
2023-03-11T13:06:00.421Z,3.15
2023-03-11T13:08:45.615Z,3.55
2023-03-11T13:14:29.726Z,3.35
2023-03-11T13:17:20.247Z,2.78
2023-03-11T13:19:53.968Z,2.85
2023-03-11T13:22:57.556Z,3.80
2023-03-11T13:25:33.005Z,3.88
2023-03-11T13:28:47.298Z,3.60
2023-03-11T13:31:27.885Z,3.67
2023-03-11T13:34:37.182Z,3.67
2023-03-11T13:37:16.685Z,3.42
2023-03-11T13:40:05.783Z,3.72
2023-03-11T13:42:44.492Z,3.58
2023-03-11T13:45:37.028Z,3.85
2023-03-11T13:48:17.425Z,3.75
2023-03-11T13:51:06.879Z,4.07
2023-03-11T13:53:43.812Z,3.75
2023-03-11T13:56:32.840Z,4.10
2023-03-11T13:59:18.023Z,4.15
2023-03-11T14:01:58.095Z,3.75
2023-03-11T14:04:36.315Z,4.00
2023-03-11T14:07:20.136Z,4.13
2023-03-11T14:09:52.076Z,3.90
2023-03-11T14:12:23.775Z,4.38
2023-03-11T14:15:01.131Z,3.60
2023-03-11T14:17:32.947Z,3.90
2023-03-11T14:20:27.906Z,4.43
2023-03-11T14:22:59.711Z,4.03
2023-03-11T14:25:31.480Z,4.43
2023-03-11T14:28:04.899Z,4.00
2023-03-11T14:30:36.600Z,3.92
2023-03-11T14:33:22.913Z,3.83
2023-03-11T14:35:57.709Z,3.50
2023-03-11T14:41:07.074Z,3.35
2023-03-11T14:43:44.272Z,3.13
2023-03-11T14:46:22.361Z,4.10
2023-03-11T14:48:56.386Z,3.35
2023-03-11T14:51:33.864Z,3.17
2023-03-11T14:54:17.666Z,3.40
2023-03-11T14:57:10.516Z,3.47
2023-03-11T14:59:43.981Z,3.20
2023-03-11T15:02:34.730Z,3.50
2023-03-11T15:05:17.029Z,3.90
2023-03-11T15:07:51.660Z,3.28
2023-03-11T15:10:23.496Z,3.58
2023-03-11T15:13:15.762Z,3.53
2023-03-11T15:15:56.583Z,3.35
2023-03-11T15:18:42.570Z,3.78
2023-03-11T15:21:17.957Z,3.75
2023-03-11T15:23:51.366Z,3.85
2023-03-11T15:26:29.434Z,3.97
2023-03-11T15:29:11.611Z,3.53
2023-03-11T15:31:47.944Z,3.85
2023-03-11T15:34:32.587Z,3.47
2023-03-11T15:37:20.966Z,3.55
2023-03-11T15:39:53.301Z,3.70
2023-03-11T15:42:26.419Z,3.67
2023-03-11T15:45:03.292Z,3.50
2023-03-11T15:47:36.211Z,3.63
2023-03-11T15:50:24.951Z,4.93
2023-03-11T15:52:59.416Z,3.00
2023-03-11T15:55:31.185Z,3.55
2023-03-11T15:58:07.880Z,3.63
2023-03-11T16:00:42.926Z,3.90
2023-03-11T16:03:14.915Z,4.32
2023-03-11T16:05:47.159Z,3.75
2023-03-11T16:08:18.926Z,3.78
2023-03-11T16:10:50.697Z,3.67
2023-03-11T16:13:23.253Z,3.97
2023-03-11T16:15:55.171Z,4.03
2023-03-11T16:18:26.896Z,3.70
2023-03-11T16:20:58.597Z,3.42
2023-03-11T16:23:50.194Z,3.33
2023-03-11T16:26:23.151Z,3.42
2023-03-11T16:28:57.287Z,3.92
2023-03-11T16:31:31.426Z,4.03
2023-03-11T16:34:03.168Z,4.45
2023-03-11T16:36:34.971Z,3.85
2023-03-11T16:39:06.797Z,3.90
2023-03-11T16:41:44.464Z,5.20
2023-03-11T16:44:16.234Z,4.65
2023-03-11T16:46:47.954Z,3.88
2023-03-11T16:49:19.675Z,4.03
2023-03-11T16:51:51.381Z,4.20
2023-03-11T16:54:23.219Z,4.82
2023-03-11T16:56:54.954Z,4.57
2023-03-11T16:59:26.753Z,4.45
2023-03-11T17:01:59.488Z,4.45
2023-03-11T17:04:34.090Z,4.40
2023-03-11T17:07:07.313Z,4.65
2023-03-11T17:09:39.119Z,3.92
2023-03-11T17:12:13.429Z,4.20
2023-03-11T17:14:46.414Z,3.35
2023-03-11T17:17:19.195Z,4.55
2023-03-11T17:19:50.962Z,4.40
2023-03-11T17:22:22.766Z,4.75
2023-03-11T17:24:54.631Z,4.30
2023-03-11T17:27:32.094Z,4.53
2023-03-11T17:30:06.216Z,4.40
2023-03-11T17:32:38.081Z,4.15
2023-03-11T17:35:10.160Z,3.70
2023-03-11T17:37:41.834Z,5.00
2023-03-11T17:40:13.717Z,4.32
2023-03-11T17:42:45.488Z,4.25
2023-03-11T17:45:17.317Z,3.92
2023-03-11T17:47:49.165Z,4.68
2023-03-11T17:50:21.841Z,4.55
2023-03-11T17:52:53.658Z,4.15
2023-03-11T17:55:26.309Z,4.78
2023-03-11T17:57:58.400Z,4.93
2023-03-11T18:00:30.215Z,5.15
2023-03-11T18:03:01.904Z,4.30
2023-03-11T18:05:36.865Z,5.47
2023-03-11T18:08:08.607Z,4.70
2023-03-11T18:10:40.336Z,4.93
2023-03-11T18:13:12.002Z,4.93
2023-03-11T18:15:43.773Z,4.65
2023-03-11T18:18:15.607Z,4.22
2023-03-11T18:20:47.356Z,4.90
2023-03-11T18:23:19.186Z,4.32
2023-03-11T18:25:52.151Z,4.72
2023-03-11T18:28:23.914Z,4.97
2023-03-11T18:30:55.936Z,4.38
2023-03-11T18:33:30.722Z,4.57
2023-03-11T18:38:48.926Z,4.68
2023-03-11T18:41:21.325Z,4.32
2023-03-11T18:43:54.922Z,4.43
2023-03-11T18:46:29.247Z,4.32
2023-03-11T18:49:03.520Z,4.32
2023-03-11T18:51:35.313Z,4.45
2023-03-11T18:54:07.204Z,5.10
2023-03-11T18:56:38.986Z,5.15
2023-03-11T18:59:12.171Z,4.85
2023-03-11T19:01:44.081Z,4.55
2023-03-11T19:04:15.925Z,4.65
2023-03-11T19:06:49.899Z,4.72
2023-03-11T19:09:21.731Z,4.83
2023-03-11T19:11:53.668Z,5.03
2023-03-11T19:14:25.589Z,5.13
2023-03-11T19:16:57.539Z,5.00
2023-03-11T19:19:31.525Z,5.63
2023-03-11T19:22:03.291Z,5.15
2023-03-11T19:24:35.021Z,5.75
2023-03-11T19:27:06.728Z,5.57
2023-03-11T19:29:38.522Z,5.47
2023-03-11T19:32:10.418Z,5.22
2023-03-11T19:34:42.237Z,5.15
2023-03-11T19:37:13.988Z,5.72
2023-03-11T19:39:45.972Z,5.05
2023-03-11T19:42:17.762Z,6.32
2023-03-11T19:44:50.188Z,5.43
2023-03-11T19:47:23.732Z,6.05
2023-03-11T19:49:55.445Z,5.13
2023-03-11T19:52:27.241Z,5.15
2023-03-11T19:54:59.114Z,5.50
2023-03-11T19:57:30.946Z,6.13
2023-03-11T20:00:02.861Z,5.80
2023-03-11T20:02:56.677Z,5.30
2023-03-11T20:05:29.099Z,5.97
2023-03-11T20:08:00.846Z,5.82
2023-03-11T20:10:41.811Z,5.25
2023-03-11T20:13:15.181Z,6.20
2023-03-11T20:15:47.185Z,5.90
2023-03-11T20:18:19.066Z,5.75
2023-03-11T20:20:50.914Z,5.75
2023-03-11T20:23:24.828Z,5.53
2023-03-11T20:25:56.556Z,5.63
2023-03-11T20:28:28.395Z,5.97
2023-03-11T20:31:06.405Z,6.47
2023-03-11T20:33:38.790Z,6.05
2023-03-11T20:36:14.147Z,6.28
2023-03-11T20:38:47.677Z,6.85
2023-03-11T20:41:20.033Z,6.20
2023-03-11T20:43:53.170Z,6.22
2023-03-11T20:46:25.255Z,6.00
2023-03-11T20:48:57.826Z,6.22
2023-03-11T20:51:30.152Z,6.40
2023-03-11T20:54:04.666Z,6.65
2023-03-11T20:56:36.623Z,6.45
2023-03-11T20:59:09.819Z,6.28
2023-03-11T21:01:41.697Z,6.82
2023-03-11T21:04:16.261Z,7.13
2023-03-11T21:06:52.571Z,7.40
2023-03-11T21:09:24.759Z,6.43
2023-03-11T21:11:59.365Z,6.55
2023-03-11T21:14:31.169Z,7.40
2023-03-11T21:17:03.145Z,7.22
2023-03-11T21:19:35.148Z,7.22
2023-03-11T21:22:06.928Z,7.25
2023-03-11T21:24:38.752Z,7.60
2023-03-11T21:27:11.352Z,6.90
2023-03-11T21:29:43.947Z,7.75
2023-03-11T21:32:15.780Z,7.40
2023-03-11T21:34:47.702Z,7.57
2023-03-11T21:37:21.526Z,7.18
2023-03-11T21:39:53.760Z,6.45
2023-03-11T21:42:29.854Z,8.05
2023-03-11T21:45:01.927Z,7.93
2023-03-11T21:47:33.681Z,7.85
2023-03-11T21:50:06.880Z,8.20
2023-03-11T21:52:38.663Z,7.68
2023-03-11T21:55:10.771Z,7.97
2023-03-11T21:57:42.514Z,8.27
2023-03-11T22:00:14.879Z,7.75
2023-03-11T22:02:50.025Z,7.57
2023-03-11T22:05:21.830Z,7.60
2023-03-11T22:07:55.481Z,6.80
2023-03-11T22:10:29.347Z,7.25
2023-03-11T22:13:01.224Z,6.45
2023-03-11T22:15:33.475Z,7.03
2023-03-11T22:18:05.353Z,7.50
2023-03-11T22:20:39.659Z,7.43
2023-03-11T22:23:11.807Z,5.22
2023-03-11T22:25:43.831Z,7.57
2023-03-11T22:28:15.745Z,7.28
2023-03-11T22:30:47.555Z,8.05
2023-03-11T22:33:20.400Z,8.13
2023-03-11T22:35:57.215Z,7.65
2023-03-11T22:38:30.817Z,8.48
2023-03-11T22:41:07.675Z,8.55
2023-03-11T22:43:40.032Z,8.25
2023-03-11T22:46:11.852Z,8.48
2023-03-11T22:48:43.572Z,8.27
2023-03-11T22:51:15.550Z,8.50
2023-03-11T22:53:47.635Z,8.30
2023-03-11T22:56:20.088Z,7.70
2023-03-11T22:58:51.841Z,8.73
2023-03-11T23:01:23.645Z,8.40
2023-03-11T23:03:55.491Z,8.45
2023-03-11T23:06:27.583Z,8.02
2023-03-11T23:08:59.482Z,8.68
2023-03-11T23:11:31.459Z,8.40
2023-03-11T23:14:03.238Z,9.23
2023-03-11T23:16:35.052Z,9.10
2023-03-11T23:19:07.227Z,9.30
2023-03-11T23:21:39.678Z,9.43
2023-03-11T23:24:11.380Z,9.10
2023-03-11T23:26:43.124Z,9.20
2023-03-11T23:29:14.837Z,9.73
2023-03-11T23:31:46.551Z,9.98
2023-03-11T23:34:18.271Z,9.38
2023-03-11T23:36:50.548Z,9.57
2023-03-11T23:39:22.253Z,9.35
2023-03-11T23:41:54.248Z,9.18
2023-03-11T23:44:26.832Z,8.38
2023-03-11T23:46:58.645Z,9.15
2023-03-11T23:49:31.844Z,9.75
2023-03-11T23:52:05.372Z,9.68
2023-03-11T23:54:37.131Z,8.57
2023-03-11T23:57:10.283Z,9.45
2023-03-11T23:59:45.525Z,9.35
